ロサンゼルス の空港の天気 - METARとTAF

ロサンゼルス国際空港 ( KLAX / LAX ) - アメリカ カリフォルニア州ロサンゼルス
飛行場実況気象(Metar)
観測時間06/25 05:53 PDT (06/25 12:53 UTC)
風向・風速東南東 3m/s
視程10km以上
天気現象
全天を覆う雲 雲底高度 520m
気温18.3℃
湿度73%
気圧1014.3hPa
METARKLAX 251253Z 12005KT 10SM OVC017 18/13 A2996 RMK AO2 SLP143 T01830133 $
過去の天気等 Google飛行場航空写真 Wunderground天気予報

過去48時間のMETAR

飛行場予報(TAF)
発表時間: 6/25 04:40 PDT (6/25 11:40 UTC)
予報対象時間: 25日5時 PDT ~ 26日11時 PDT
風向・風速東南東 3m/s
視程10km以上
全天を覆う雲 雲底高度 520m
25日11時 PDT から
風向・風速西南西 3m/s
視程10km以上
全天の4割程度の雲 雲底高度 670m
25日14時 PDT から
風向・風速西南西 7m/s
視程10km以上
少しの雲 雲底高度 670m
25日21時 PDT から
風向・風速西 4m/s
視程10km以上
全天の4割程度の雲 雲底高度 460m
26日0時 PDT から
風向・風速西南西 3m/s
視程10km以上
全天の8割程度の雲 雲底高度 370m
26日2時 PDT から
風向・風速不定 2m/s
視程10km以上
全天を覆う雲 雲底高度 430m
26日10時 PDT から
風向・風速西南西 3m/s
視程10km以上
全天の4割程度の雲 雲底高度 640m
KLAX 251140Z 2512/2618 11005KT P6SM OVC017
FM251800 25005KT P6SM SCT022
FM252100 25014KT P6SM FEW022
FM260400 26008KT P6SM SCT015
FM260700 25006KT P6SM BKN012
FM260900 VRB03KT P6SM OVC014
FM261700 24005KT P6SM SCT021